createdAt,value
2023-01-19T00:00:33.062Z,12.35
2023-01-19T00:03:01.146Z,13.10
2023-01-19T00:05:29.184Z,12.90
2023-01-19T00:08:15.787Z,11.13
2023-01-19T00:10:46.729Z,10.88
2023-01-19T00:13:17.806Z,11.38
2023-01-19T00:15:46.088Z,11.48
2023-01-19T00:18:15.822Z,11.85
2023-01-19T00:20:46.605Z,11.38
2023-01-19T00:23:17.452Z,9.77
2023-01-19T00:25:46.087Z,10.43
2023-01-19T00:28:18.820Z,12.25
2023-01-19T00:30:48.772Z,11.30
2023-01-19T00:33:16.980Z,10.18
2023-01-19T00:35:45.367Z,11.90
2023-01-19T00:38:15.194Z,9.43
2023-01-19T00:40:43.198Z,10.60
2023-01-19T00:43:10.425Z,10.85
2023-01-19T00:45:39.777Z,9.48
2023-01-19T00:48:07.990Z,10.90
2023-01-19T00:50:36.376Z,11.27
2023-01-19T00:53:06.928Z,10.85
2023-01-19T00:55:36.330Z,12.13
2023-01-19T00:58:05.728Z,12.05
2023-01-19T01:00:34.032Z,10.30
2023-01-19T01:03:04.184Z,11.88
2023-01-19T01:05:32.614Z,9.88
2023-01-19T01:08:00.653Z,10.77
2023-01-19T01:10:30.447Z,9.98
2023-01-19T01:13:21.305Z,10.70
2023-01-19T01:15:52.751Z,10.30
2023-01-19T01:18:23.915Z,11.18
2023-01-19T01:20:56.045Z,8.57
2023-01-19T01:23:24.421Z,10.55
2023-01-19T01:25:53.862Z,8.95
2023-01-19T01:28:23.311Z,10.77
2023-01-19T01:30:56.793Z,9.90
2023-01-19T01:33:40.454Z,10.52
2023-01-19T01:36:12.703Z,10.27
2023-01-19T01:38:41.213Z,11.05
2023-01-19T01:41:11.724Z,9.57
2023-01-19T01:43:47.846Z,9.95
2023-01-19T01:46:19.787Z,9.43
2023-01-19T01:48:56.004Z,10.75
2023-01-19T01:51:32.773Z,9.57
2023-01-19T01:54:14.234Z,11.68
2023-01-19T01:56:47.872Z,10.82
2023-01-19T01:59:28.691Z,9.02
2023-01-19T02:02:18.780Z,11.02
2023-01-19T02:04:54.665Z,9.43
2023-01-19T02:07:56.662Z,9.55
2023-01-19T02:10:42.509Z,8.65
2023-01-19T02:13:21.658Z,10.48
2023-01-19T02:15:53.722Z,9.75
2023-01-19T02:18:26.657Z,9.25
2023-01-19T02:21:05.630Z,9.45
2023-01-19T02:23:47.062Z,8.48
2023-01-19T02:26:20.388Z,8.15
2023-01-19T02:28:53.634Z,9.10
2023-01-19T02:31:23.724Z,8.73
2023-01-19T02:33:54.663Z,8.35
2023-01-19T02:36:28.627Z,7.60
2023-01-19T02:39:03.685Z,8.32
2023-01-19T02:41:40.180Z,7.65
2023-01-19T02:44:10.403Z,8.65
2023-01-19T02:46:39.730Z,7.75
2023-01-19T02:49:07.748Z,9.20
2023-01-19T02:51:36.568Z,7.30
2023-01-19T02:54:42.081Z,9.27
2023-01-19T02:57:37.630Z,7.25
2023-01-19T03:00:32.575Z,7.25
2023-01-19T03:03:25.594Z,7.68
2023-01-19T03:06:03.961Z,8.70
2023-01-19T03:08:44.876Z,8.60
2023-01-19T03:11:17.651Z,8.13
2023-01-19T03:13:54.609Z,8.93
2023-01-19T03:16:30.558Z,7.80
2023-01-19T03:19:12.720Z,8.98
2023-01-19T03:21:48.406Z,7.00
2023-01-19T03:24:20.165Z,8.07
2023-01-19T03:26:57.745Z,8.10
2023-01-19T03:29:32.667Z,8.90
2023-01-19T03:32:07.331Z,8.63
2023-01-19T03:34:37.809Z,10.20
2023-01-19T03:37:08.604Z,8.20
2023-01-19T03:39:36.981Z,10.50
2023-01-19T03:42:12.791Z,8.80
2023-01-19T03:44:44.449Z,8.32
2023-01-19T03:47:17.596Z,8.80
2023-01-19T03:49:48.900Z,8.80
2023-01-19T03:52:18.564Z,8.50
2023-01-19T03:54:46.644Z,8.90
2023-01-19T03:57:17.614Z,8.35
2023-01-19T03:59:45.632Z,9.10
2023-01-19T04:02:13.673Z,8.55
2023-01-19T04:04:43.568Z,8.57
2023-01-19T04:07:13.538Z,8.45
2023-01-19T04:09:41.949Z,9.70
2023-01-19T04:12:13.658Z,7.72
2023-01-19T04:14:43.002Z,8.43
2023-01-19T04:17:11.031Z,8.07
2023-01-19T04:19:39.056Z,7.40
2023-01-19T04:22:07.085Z,8.30
2023-01-19T04:24:35.236Z,9.02
2023-01-19T04:27:03.417Z,11.13
2023-01-19T04:29:31.530Z,8.20
2023-01-19T04:32:00.948Z,9.00
2023-01-19T04:34:31.539Z,7.80
2023-01-19T04:37:01.532Z,8.50
2023-01-19T04:39:29.526Z,9.35
2023-01-19T04:41:57.790Z,9.77
2023-01-19T04:44:27.541Z,9.55
2023-01-19T04:46:55.950Z,9.48
2023-01-19T04:49:25.607Z,9.65
2023-01-19T04:51:56.481Z,7.60
2023-01-19T04:54:24.625Z,9.93
2023-01-19T04:56:52.839Z,6.55
2023-01-19T04:59:23.473Z,8.60
2023-01-19T05:01:51.600Z,10.10
2023-01-19T05:04:19.764Z,9.27
2023-01-19T05:06:49.986Z,8.38
2023-01-19T05:09:18.039Z,9.57
2023-01-19T05:11:47.662Z,9.65
2023-01-19T05:14:17.515Z,8.05
2023-01-19T05:16:45.512Z,8.35
2023-01-19T05:19:19.523Z,7.25
2023-01-19T05:21:48.923Z,9.20
2023-01-19T05:24:16.935Z,8.35
2023-01-19T05:26:45.008Z,7.68
2023-01-19T05:29:15.455Z,8.27
2023-01-19T05:31:43.635Z,7.18
2023-01-19T05:34:14.473Z,7.60
2023-01-19T05:36:45.442Z,7.30
2023-01-19T05:39:15.212Z,8.57
2023-01-19T05:41:44.691Z,7.70
2023-01-19T05:44:15.432Z,7.68
2023-01-19T05:46:43.461Z,9.30
2023-01-19T05:49:13.526Z,7.80
2023-01-19T05:51:45.354Z,9.52
2023-01-19T05:54:16.297Z,9.13
2023-01-19T05:56:44.587Z,7.70
2023-01-19T05:59:12.968Z,7.38
2023-01-19T06:01:41.785Z,7.82
2023-01-19T06:04:09.842Z,10.07
2023-01-19T06:06:37.930Z,8.18
2023-01-19T06:09:07.824Z,7.45
2023-01-19T06:11:37.339Z,8.18
2023-01-19T06:14:05.483Z,8.93
2023-01-19T06:16:33.635Z,8.55
2023-01-19T06:19:01.897Z,9.23
2023-01-19T06:21:30.003Z,7.72
2023-01-19T06:23:57.984Z,9.60
2023-01-19T06:26:26.416Z,9.43
2023-01-19T06:28:56.364Z,7.57
2023-01-19T06:31:24.656Z,8.02
2023-01-19T06:33:52.796Z,9.93
2023-01-19T06:36:20.868Z,8.00
2023-01-19T06:38:48.887Z,9.10
2023-01-19T06:41:16.992Z,10.82
2023-01-19T06:43:45.003Z,8.02
2023-01-19T06:46:14.768Z,8.73
2023-01-19T06:48:42.797Z,8.57
2023-01-19T06:51:11.168Z,8.02
2023-01-19T06:53:39.565Z,10.43
2023-01-19T06:56:09.375Z,9.68
2023-01-19T06:58:37.709Z,10.10
2023-01-19T07:01:07.744Z,10.15
2023-01-19T07:03:38.561Z,10.63
2023-01-19T07:06:07.717Z,11.20
2023-01-19T07:08:37.277Z,10.75
2023-01-19T07:11:26.404Z,11.18
2023-01-19T07:13:57.169Z,8.82
2023-01-19T07:16:25.386Z,10.15
2023-01-19T07:18:54.878Z,10.55
2023-01-19T07:21:23.571Z,10.07
2023-01-19T07:23:52.764Z,10.15
2023-01-19T07:26:21.812Z,11.48
2023-01-19T07:28:50.934Z,10.98
2023-01-19T07:31:20.038Z,10.73
2023-01-19T07:33:48.339Z,11.82
2023-01-19T07:36:17.781Z,10.18
2023-01-19T07:38:45.959Z,10.52
2023-01-19T07:41:14.018Z,9.45
2023-01-19T07:43:42.052Z,10.93
2023-01-19T07:46:10.146Z,9.98
2023-01-19T07:48:38.194Z,8.70
2023-01-19T07:51:10.990Z,11.15
2023-01-19T07:53:41.954Z,10.38
2023-01-19T07:56:10.833Z,10.50
2023-01-19T07:58:39.040Z,9.40
2023-01-19T08:01:09.346Z,9.57
2023-01-19T08:03:37.930Z,9.38
2023-01-19T08:06:07.453Z,10.20
2023-01-19T08:08:35.798Z,10.57
2023-01-19T08:11:05.603Z,11.77
2023-01-19T08:13:34.241Z,10.93
2023-01-19T08:16:02.716Z,9.82
2023-01-19T08:18:30.981Z,9.82
2023-01-19T08:21:00.687Z,9.60
2023-01-19T08:23:29.405Z,11.30
2023-01-19T08:25:57.759Z,9.45
2023-01-19T08:28:27.394Z,11.52
2023-01-19T08:30:55.619Z,11.23
2023-01-19T08:33:25.765Z,10.38
2023-01-19T08:35:55.186Z,11.02
2023-01-19T08:38:23.263Z,10.65
2023-01-19T08:40:52.030Z,9.90
2023-01-19T08:43:20.173Z,9.85
2023-01-19T08:45:53.291Z,10.85
2023-01-19T08:48:23.689Z,9.77
2023-01-19T08:50:53.616Z,10.75
2023-01-19T08:53:23.808Z,9.05
2023-01-19T08:55:57.359Z,9.52
2023-01-19T08:58:25.655Z,8.75
2023-01-19T09:00:55.307Z,8.23
2023-01-19T09:03:24.054Z,9.57
2023-01-19T09:05:52.402Z,9.68
2023-01-19T09:08:20.517Z,10.35
2023-01-19T09:10:51.174Z,8.18
2023-01-19T09:13:21.406Z,9.50
2023-01-19T09:15:50.349Z,10.02
2023-01-19T09:18:22.847Z,8.52
2023-01-19T09:20:52.124Z,7.03
2023-01-19T09:23:22.723Z,8.52
2023-01-19T09:25:59.430Z,7.00
2023-01-19T09:28:29.255Z,7.05
2023-01-19T09:30:58.372Z,7.15
2023-01-19T09:33:27.815Z,6.53
2023-01-19T09:35:57.400Z,7.88
2023-01-19T09:38:26.119Z,7.28
2023-01-19T09:40:57.194Z,6.63
2023-01-19T09:43:38.565Z,6.93
2023-01-19T09:46:13.599Z,6.80
2023-01-19T09:48:49.159Z,6.80
2023-01-19T09:51:22.690Z,7.43
2023-01-19T09:54:06.842Z,8.23
2023-01-19T09:56:35.153Z,6.05
2023-01-19T09:59:19.082Z,6.50
2023-01-19T10:02:08.083Z,7.00
2023-01-19T10:04:42.100Z,5.32
2023-01-19T10:07:26.057Z,5.00
2023-01-19T10:10:12.358Z,5.10
2023-01-19T10:13:01.393Z,5.80
2023-01-19T10:15:42.913Z,6.03
2023-01-19T10:18:18.763Z,5.35
2023-01-19T10:20:52.153Z,5.75
2023-01-19T10:23:44.086Z,6.88
2023-01-19T10:26:18.398Z,5.10
2023-01-19T10:28:51.511Z,5.68
2023-01-19T10:31:24.820Z,6.20
2023-01-19T10:33:54.308Z,4.93
2023-01-19T10:36:30.478Z,5.13
2023-01-19T10:38:59.676Z,5.30
2023-01-19T10:41:39.487Z,4.63
2023-01-19T10:44:09.420Z,4.50
2023-01-19T10:46:44.724Z,4.88
2023-01-19T10:49:28.314Z,5.03
2023-01-19T10:52:00.675Z,4.80
2023-01-19T10:54:32.668Z,5.10
2023-01-19T10:57:05.210Z,4.45
2023-01-19T10:59:38.137Z,4.70
2023-01-19T11:02:20.283Z,5.65
2023-01-19T11:04:51.383Z,4.47
2023-01-19T11:07:24.016Z,5.03
2023-01-19T11:10:23.988Z,4.50
2023-01-19T11:13:03.619Z,5.40
2023-01-19T11:15:36.535Z,6.55
2023-01-19T11:18:07.138Z,5.18
2023-01-19T11:20:53.611Z,6.03
2023-01-19T11:23:29.312Z,5.57
2023-01-19T11:26:01.519Z,5.00
2023-01-19T11:28:35.224Z,5.18
2023-01-19T11:31:19.065Z,4.57
2023-01-19T11:33:52.921Z,4.65
2023-01-19T11:36:25.403Z,5.68
2023-01-19T11:38:57.758Z,5.30
2023-01-19T11:41:29.687Z,6.15
2023-01-19T11:44:03.561Z,5.97
2023-01-19T11:46:36.192Z,5.60
2023-01-19T11:49:09.421Z,4.75
2023-01-19T11:51:47.517Z,4.97
2023-01-19T11:54:25.295Z,6.07
2023-01-19T11:56:55.560Z,5.30
2023-01-19T11:59:25.356Z,5.53
2023-01-19T12:01:58.474Z,4.85
2023-01-19T12:04:32.015Z,5.40
2023-01-19T12:07:07.480Z,5.57
2023-01-19T12:09:43.914Z,6.20
2023-01-19T12:12:25.005Z,5.20
2023-01-19T12:15:00.778Z,5.07
2023-01-19T12:17:35.169Z,5.95
2023-01-19T12:20:15.065Z,5.55
2023-01-19T12:22:56.208Z,5.28
2023-01-19T12:25:39.832Z,5.72
2023-01-19T12:28:14.857Z,4.72
2023-01-19T12:30:43.348Z,4.47
2023-01-19T12:33:35.944Z,5.68
2023-01-19T12:36:10.275Z,4.82
2023-01-19T12:38:52.871Z,5.15
2023-01-19T12:41:31.458Z,5.47
2023-01-19T12:44:34.054Z,6.22
2023-01-19T12:47:21.031Z,4.75
2023-01-19T12:49:52.597Z,4.73
2023-01-19T12:52:30.834Z,5.70
2023-01-19T12:55:05.083Z,5.72
2023-01-19T12:57:40.035Z,4.97
2023-01-19T13:00:32.177Z,5.00
2023-01-19T13:03:02.349Z,4.88
2023-01-19T13:05:53.551Z,5.80
2023-01-19T13:08:25.793Z,4.95
2023-01-19T13:11:23.793Z,5.30
2023-01-19T13:14:37.922Z,5.50
2023-01-19T13:17:30.681Z,5.22
2023-01-19T13:20:29.512Z,4.90
2023-01-19T13:23:25.694Z,4.93
2023-01-19T13:26:03.312Z,5.47
2023-01-19T13:28:43.201Z,5.20
2023-01-19T13:31:15.074Z,5.35
2023-01-19T13:33:52.813Z,5.05
2023-01-19T13:36:30.596Z,5.43
2023-01-19T13:39:02.747Z,5.65
2023-01-19T13:41:36.497Z,5.43
2023-01-19T13:44:14.146Z,5.22
2023-01-19T13:46:44.272Z,4.43
2023-01-19T13:49:22.151Z,4.97
2023-01-19T13:52:06.483Z,5.68
2023-01-19T13:54:34.661Z,5.20
2023-01-19T13:57:02.691Z,4.20
2023-01-19T13:59:30.789Z,5.35
2023-01-19T14:02:14.537Z,5.75
2023-01-19T14:04:42.798Z,5.57
2023-01-19T14:07:26.164Z,4.32
2023-01-19T14:10:06.236Z,5.32
2023-01-19T14:12:36.137Z,5.47
2023-01-19T14:15:13.992Z,5.95
2023-01-19T14:17:43.612Z,5.20
2023-01-19T14:20:37.132Z,4.90
2023-01-19T14:23:08.070Z,6.72
2023-01-19T14:25:39.377Z,6.57
2023-01-19T14:28:31.164Z,5.45
2023-01-19T14:31:04.752Z,5.47
2023-01-19T14:34:00.642Z,5.35
2023-01-19T14:36:41.444Z,5.88
2023-01-19T14:39:23.656Z,5.70
2023-01-19T14:41:55.267Z,4.55
2023-01-19T14:44:31.852Z,5.10
2023-01-19T14:47:01.588Z,4.38
2023-01-19T14:49:38.301Z,6.03
2023-01-19T14:52:23.862Z,5.07
2023-01-19T14:57:26.984Z,4.63
2023-01-19T15:00:09.136Z,5.90
2023-01-19T15:02:37.603Z,4.85
2023-01-19T15:05:08.910Z,4.55
2023-01-19T15:07:40.047Z,4.82
2023-01-19T15:10:36.858Z,5.78
2023-01-19T15:13:21.705Z,4.60
2023-01-19T15:15:51.040Z,5.32
2023-01-19T15:18:25.315Z,4.57
2023-01-19T15:21:02.571Z,5.18
2023-01-19T15:23:31.097Z,7.85
2023-01-19T15:26:02.701Z,5.03
2023-01-19T15:28:32.760Z,4.15
2023-01-19T15:31:01.767Z,5.80
2023-01-19T15:33:31.409Z,6.88
2023-01-19T15:36:01.288Z,6.07
2023-01-19T15:38:29.518Z,4.90
2023-01-19T15:40:58.663Z,6.00
2023-01-19T15:43:26.928Z,4.75
2023-01-19T15:46:02.302Z,5.93
2023-01-19T15:48:30.771Z,6.05
2023-01-19T15:51:00.827Z,5.28
2023-01-19T15:53:30.674Z,5.97
2023-01-19T15:55:59.009Z,5.85
2023-01-19T15:58:27.435Z,5.57
2023-01-19T16:00:59.022Z,6.95
2023-01-19T16:03:27.667Z,8.00
2023-01-19T16:05:55.741Z,6.53
2023-01-19T16:08:33.640Z,5.53
2023-01-19T16:11:19.315Z,5.78
2023-01-19T16:13:48.580Z,5.70
2023-01-19T16:16:20.627Z,5.82
2023-01-19T16:18:58.704Z,5.68
2023-01-19T16:21:26.973Z,5.20
2023-01-19T16:23:56.808Z,5.82
2023-01-19T16:26:30.131Z,5.88
2023-01-19T16:29:00.790Z,5.22
2023-01-19T16:31:29.826Z,5.80
2023-01-19T16:33:58.037Z,6.20
2023-01-19T16:36:28.800Z,5.30
2023-01-19T16:39:00.075Z,5.38
2023-01-19T16:41:28.866Z,5.90
2023-01-19T16:43:59.126Z,6.35
2023-01-19T16:46:29.859Z,5.13
2023-01-19T16:49:02.031Z,6.20
2023-01-19T16:51:30.929Z,5.40
2023-01-19T16:54:00.703Z,6.22
2023-01-19T16:56:29.040Z,6.80
2023-01-19T16:58:59.163Z,4.88
2023-01-19T17:01:30.840Z,5.32
2023-01-19T17:03:59.065Z,5.70
2023-01-19T17:06:28.786Z,4.22
2023-01-19T17:08:56.913Z,3.45
2023-01-19T17:11:28.521Z,4.00
2023-01-19T17:14:00.233Z,3.97
2023-01-19T17:16:32.096Z,4.15
2023-01-19T17:19:03.108Z,4.00
2023-01-19T17:21:31.658Z,3.85
2023-01-19T17:24:00.821Z,3.95
2023-01-19T17:26:31.401Z,3.20
2023-01-19T17:29:00.608Z,5.05
2023-01-19T17:31:29.876Z,4.78
2023-01-19T17:33:58.055Z,4.57
2023-01-19T17:36:28.100Z,5.32
2023-01-19T17:38:58.505Z,5.40
2023-01-19T17:41:30.832Z,5.28
2023-01-19T17:44:00.994Z,5.68
2023-01-19T17:46:30.513Z,5.50
2023-01-19T17:49:01.662Z,6.38
2023-01-19T17:51:31.224Z,5.30
2023-01-19T17:54:00.407Z,5.75
2023-01-19T17:56:36.651Z,7.05
2023-01-19T17:59:08.196Z,6.18
2023-01-19T18:01:40.347Z,6.28
2023-01-19T18:04:10.169Z,11.23
2023-01-19T18:06:39.227Z,8.15
2023-01-19T18:09:08.016Z,6.30
2023-01-19T18:11:37.724Z,6.38
2023-01-19T18:14:06.741Z,6.00
2023-01-19T18:16:35.960Z,7.22
2023-01-19T18:19:04.237Z,8.30
2023-01-19T18:21:32.527Z,9.85
2023-01-19T18:24:04.010Z,6.93
2023-01-19T18:26:34.878Z,5.47
2023-01-19T18:29:04.485Z,9.13
2023-01-19T18:31:32.703Z,15.95
2023-01-19T18:34:01.013Z,10.32
2023-01-19T18:36:32.065Z,7.55
2023-01-19T18:39:00.316Z,6.03
2023-01-19T18:41:30.655Z,5.95
2023-01-19T18:43:59.682Z,6.38
2023-01-19T18:46:29.325Z,7.30
2023-01-19T18:48:57.557Z,9.20
2023-01-19T18:51:34.396Z,6.68
2023-01-19T18:54:20.904Z,10.25
2023-01-19T18:57:04.358Z,8.95
2023-01-19T18:59:44.689Z,9.40
2023-01-19T19:02:39.465Z,7.80
2023-01-19T19:05:19.522Z,8.15
2023-01-19T19:07:52.715Z,6.20
2023-01-19T19:10:29.155Z,6.93
2023-01-19T19:13:11.501Z,6.65
2023-01-19T19:16:03.102Z,6.60
2023-01-19T19:18:42.394Z,7.97
2023-01-19T19:21:23.988Z,8.48
2023-01-19T19:23:58.559Z,8.10
2023-01-19T19:26:35.054Z,7.82
2023-01-19T19:29:11.082Z,7.70
2023-01-19T19:31:49.884Z,7.43
2023-01-19T19:34:31.040Z,8.45
2023-01-19T19:37:14.866Z,8.43
2023-01-19T19:42:46.099Z,21.75
2023-01-19T19:48:57.716Z,15.52
2023-01-19T19:52:43.829Z,11.85
2023-01-19T19:58:04.680Z,10.73
2023-01-19T20:00:33.123Z,10.13
2023-01-19T20:03:02.227Z,11.00
2023-01-19T20:05:30.815Z,8.98
2023-01-19T20:07:59.073Z,9.00
2023-01-19T20:10:27.388Z,7.65
2023-01-19T20:12:55.652Z,8.68
2023-01-19T20:15:25.406Z,10.38
2023-01-19T20:17:54.001Z,10.40
2023-01-19T20:20:22.574Z,11.27
2023-01-19T20:22:51.258Z,13.20
2023-01-19T20:25:19.867Z,13.65
2023-01-19T20:27:48.526Z,9.68
2023-01-19T20:30:17.484Z,13.80
2023-01-19T20:32:47.637Z,29.50
2023-01-19T20:35:16.513Z,21.75
2023-01-19T20:37:44.862Z,20.15
2023-01-19T20:40:13.515Z,13.80
2023-01-19T20:42:43.375Z,12.00
2023-01-19T20:45:12.730Z,12.68
2023-01-19T20:47:41.125Z,11.43
2023-01-19T20:50:12.874Z,8.90
2023-01-19T20:52:41.174Z,10.73
2023-01-19T20:55:10.476Z,14.98
2023-01-19T20:57:38.772Z,31.00
2023-01-19T21:00:08.654Z,19.40
2023-01-19T21:02:36.855Z,15.18
2023-01-19T21:05:05.749Z,16.40
2023-01-19T21:07:35.473Z,9.55
2023-01-19T21:10:03.897Z,11.13
2023-01-19T21:12:32.133Z,14.07
2023-01-19T21:15:00.461Z,14.75
2023-01-19T21:17:28.751Z,12.50
2023-01-19T21:19:57.024Z,13.95
2023-01-19T21:22:25.456Z,11.95
2023-01-19T21:24:55.113Z,11.23
2023-01-19T21:27:23.262Z,10.35
2023-01-19T21:29:51.494Z,16.38
2023-01-19T21:32:20.246Z,13.68
2023-01-19T21:34:48.577Z,18.10
2023-01-19T21:37:16.982Z,13.88
2023-01-19T21:39:45.306Z,12.60
2023-01-19T21:42:15.035Z,11.73
2023-01-19T21:44:43.210Z,11.65
2023-01-19T21:47:11.951Z,14.25
2023-01-19T21:49:40.370Z,11.95
2023-01-19T21:52:08.824Z,22.73
2023-01-19T21:54:37.092Z,53.97
2023-01-19T21:57:05.517Z,30.13
2023-01-19T21:59:35.253Z,16.92
2023-01-19T22:02:03.877Z,15.48
2023-01-19T22:04:32.292Z,16.02
2023-01-19T22:07:00.600Z,24.80
2023-01-19T22:09:28.783Z,34.25
2023-01-19T22:11:57.037Z,24.42
2023-01-19T22:14:25.402Z,21.40
2023-01-19T22:16:55.158Z,20.75
2023-01-19T22:19:23.685Z,18.40
2023-01-19T22:21:51.988Z,17.50
2023-01-19T22:24:20.313Z,18.30
2023-01-19T22:26:48.641Z,15.65
2023-01-19T22:29:17.079Z,23.00
2023-01-19T22:31:45.907Z,46.15
2023-01-19T22:34:17.230Z,26.10
2023-01-19T22:36:45.686Z,18.67
2023-01-19T22:39:14.797Z,18.30
2023-01-19T22:41:45.413Z,19.33
2023-01-19T22:44:15.926Z,17.02
2023-01-19T22:46:44.913Z,18.33
2023-01-19T22:49:18.578Z,20.90
2023-01-19T22:51:47.793Z,18.00
2023-01-19T22:54:16.389Z,19.33
2023-01-19T22:56:45.899Z,20.63
2023-01-19T22:59:14.552Z,14.93
2023-01-19T23:01:45.854Z,13.05
2023-01-19T23:04:17.640Z,11.95
2023-01-19T23:06:50.544Z,16.63
2023-01-19T23:09:19.920Z,15.05
2023-01-19T23:11:50.853Z,14.15
2023-01-19T23:14:21.905Z,12.63
2023-01-19T23:16:50.426Z,12.73
2023-01-19T23:19:20.609Z,12.00
2023-01-19T23:21:52.353Z,18.02
2023-01-19T23:24:20.699Z,15.13
2023-01-19T23:26:50.470Z,13.23
2023-01-19T23:29:19.790Z,11.77
2023-01-19T23:31:50.451Z,22.33
2023-01-19T23:34:20.344Z,13.57
2023-01-19T23:36:48.615Z,16.13
2023-01-19T23:39:20.304Z,14.75
2023-01-19T23:41:49.412Z,13.82
2023-01-19T23:44:18.706Z,13.82
2023-01-19T23:46:47.888Z,14.00
2023-01-19T23:49:17.125Z,13.68
2023-01-19T23:51:46.943Z,15.43
2023-01-19T23:54:15.198Z,14.52
2023-01-19T23:56:43.655Z,16.95
2023-01-19T23:59:14.876Z,13.13
